Wetterdaten: Woche 29.09.14 - 05.10.14 (KW40)
Datum Zeit Temp. A. Feuchte A. Luftdruck Regen Wind Richtung Sonnenschein ET UV Solar Taupunkt Windchill Windben
29.09.2014 00:00 8,6 C 93 % 1025,9 hPa 0,0 l/m 1,3 km/h (1 Bft) N-NW 0,00 h 0,000 mm 0,0 UV-I 0 W/m 7,5 C 8,6 C 2,3 km/h (1 Bft)
29.09.2014 01:00 8,3 C 94 % 1026,3 hPa 0,0 l/m 0,2 km/h (0 Bft) O 0,00 h 0,000 mm 0,0 UV-I 0 W/m 7,3 C 8,3 C 0,5 km/h (0 Bft)
29.09.2014 02:00 7,6 C 93 % 1026,0 hPa 0,0 l/m 0,0 km/h (0 Bft) N 0,00 h 0,000 mm 0,0 UV-I 0 W/m 6,6 C 7,6 C 0,1 km/h (0 Bft)
29.09.2014 03:00 6,9 C 93 % 1025,7 hPa 0,0 l/m 0,0 km/h (0 Bft) N 0,00 h 0,000 mm 0,0 UV-I 0 W/m 5,9 C 6,9 C 0,0 km/h (0 Bft)
29.09.2014 04:00 6,3 C 94 % 1025,6 hPa 0,0 l/m 0,0 km/h (0 Bft) N 0,00 h 0,000 mm 0,0 UV-I 0 W/m 5,4 C 6,3 C 0,1 km/h (0 Bft)
29.09.2014 05:00 5,8 C 94 % 1025,7 hPa 0,0 l/m 0,0 km/h (0 Bft) N 0,00 h 0,000 mm 0,0 UV-I 0 W/m 4,9 C 5,8 C 0,0 km/h (0 Bft)
29.09.2014 06:00 5,5 C 94 % 1025,8 hPa 0,0 l/m 0,0 km/h (0 Bft) O-SO 0,00 h 0,000 mm 0,0 UV-I 0 W/m 4,6 C 5,5 C 0,3 km/h (0 Bft)
29.09.2014 07:00 5,3 C 95 % 1026,0 hPa 0,0 l/m 0,0 km/h (0 Bft) N 0,00 h 0,000 mm 0,0 UV-I 19 W/m 4,6 C 5,3 C 0,0 km/h (0 Bft)
29.09.2014 08:00 7,0 C 96 % 1026,4 hPa 0,0 l/m 0,0 km/h (0 Bft) N 0,62 h 0,000 mm 0,6 UV-I 134 W/m 6,3 C 7,0 C 0,0 km/h (0 Bft)
29.09.2014 09:00 12,1 C 89 % 1026,4 hPa 0,0 l/m 0,1 km/h (0 Bft) SO 1,00 h 0,076 mm 1,0 UV-I 329 W/m 10,4 C 12,1 C 0,9 km/h (0 Bft)
29.09.2014 10:00 16,1 C 83 % 1026,2 hPa 0,0 l/m 1,1 km/h (1 Bft) S 1,00 h 0,152 mm 2,0 UV-I 473 W/m 13,1 C 16,1 C 2,9 km/h (1 Bft)
29.09.2014 11:00 18,8 C 76 % 1025,7 hPa 0,0 l/m 3,6 km/h (1 Bft) W-SW 1,00 h 0,254 mm 2,9 UV-I 550 W/m 14,5 C 18,7 C 6,3 km/h (2 Bft)
29.09.2014 12:00 20,7 C 69 % 1025,3 hPa 0,0 l/m 3,4 km/h (1 Bft) W-SW 1,00 h 0,330 mm 3,4 UV-I 598 W/m 14,7 C 20,7 C 5,9 km/h (2 Bft)
29.09.2014 13:00 21,9 C 65 % 1025,0 hPa 0,0 l/m 3,0 km/h (1 Bft) S 1,00 h 0,356 mm 3,2 UV-I 546 W/m 14,9 C 21,9 C 5,7 km/h (1 Bft)
29.09.2014 14:00 22,4 C 59 % 1024,6 hPa 0,0 l/m 4,5 km/h (1 Bft) W-SW 1,00 h 0,330 mm 2,6 UV-I 465 W/m 14,0 C 22,3 C 7,4 km/h (2 Bft)
29.09.2014 15:00 22,6 C 57 % 1024,3 hPa 0,0 l/m 4,6 km/h (1 Bft) S 1,00 h 0,305 mm 1,9 UV-I 396 W/m 13,5 C 22,5 C 7,7 km/h (2 Bft)
29.09.2014 16:00 22,3 C 56 % 1024,0 hPa 0,0 l/m 4,7 km/h (1 Bft) S-SW 1,00 h 0,279 mm 1,1 UV-I 282 W/m 13,0 C 22,3 C 7,5 km/h (2 Bft)
29.09.2014 17:00 21,4 C 59 % 1024,0 hPa 0,0 l/m 2,1 km/h (1 Bft) S 0,95 h 0,203 mm 0,5 UV-I 100 W/m 13,2 C 21,4 C 4,2 km/h (1 Bft)
29.09.2014 18:00 19,9 C 69 % 1024,1 hPa 0,0 l/m 1,0 km/h (0 Bft) S-SW 0,12 h 0,076 mm 0,0 UV-I 25 W/m 13,9 C 19,9 C 2,2 km/h (1 Bft)
29.09.2014 19:00 17,2 C 80 % 1024,3 hPa 0,0 l/m 0,1 km/h (0 Bft) O 0,00 h 0,025 mm 0,0 UV-I 0 W/m 13,6 C 17,2 C 0,8 km/h (0 Bft)
29.09.2014 20:00 15,4 C 85 % 1024,6 hPa 0,0 l/m 0,2 km/h (0 Bft) O 0,00 h 0,000 mm 0,0 UV-I 0 W/m 12,8 C 15,4 C 0,8 km/h (0 Bft)
29.09.2014 21:00 13,6 C 88 % 1024,6 hPa 0,0 l/m 0,0 km/h (0 Bft) N 0,00 h 0,025 mm 0,0 UV-I 0 W/m 11,7 C 13,6 C 0,0 km/h (0 Bft)
29.09.2014 22:00 12,4 C 90 % 1024,8 hPa 0,0 l/m 0,0 km/h (0 Bft) N 0,00 h 0,000 mm 0,0 UV-I 0 W/m 10,9 C 12,4 C 0,0 km/h (0 Bft)
29.09.2014 23:00 11,4 C 91 % 1024,8 hPa 0,0 l/m 0,1 km/h (0 Bft) O-NO 0,00 h 0,000 mm 0,0 UV-I 0 W/m 10,0 C 11,4 C 0,2 km/h (0 Bft)
30.09.2014 00:00 10,7 C 93 % 1024,8 hPa 0,0 l/m 0,0 km/h (0 Bft) N 0,00 h 0,000 mm 0,0 UV-I 0 W/m 9,6 C 10,7 C 0,1 km/h (0 Bft)
30.09.2014 01:00 10,3 C 94 % 1024,7 hPa 0,0 l/m 0,0 km/h (0 Bft) N 0,00 h 0,000 mm 0,0 UV-I 0 W/m 9,4 C 10,3 C 0,0 km/h (0 Bft)
30.09.2014 02:00 10,3 C 95 % 1024,3 hPa 0,0 l/m 0,0 km/h (0 Bft) N 0,00 h 0,000 mm 0,0 UV-I 0 W/m 9,5 C 10,3 C 0,1 km/h (0 Bft)
30.09.2014 03:00 10,6 C 96 % 1024,4 hPa 0,0 l/m 0,0 km/h (0 Bft) N 0,00 h 0,000 mm 0,0 UV-I 0 W/m 9,9 C 10,6 C 0,0 km/h (0 Bft)
30.09.2014 04:00 10,8 C 96 % 1024,6 hPa 0,0 l/m 0,2 km/h (0 Bft) N 0,00 h 0,000 mm 0,0 UV-I 0 W/m 10,2 C 10,8 C 0,5 km/h (0 Bft)
30.09.2014 05:00 11,1 C 96 % 1024,5 hPa 0,0 l/m 0,0 km/h (0 Bft) N 0,00 h 0,000 mm 0,0 UV-I 0 W/m 10,4 C 11,1 C 0,0 km/h (0 Bft)
30.09.2014 06:00 11,1 C 96 % 1024,4 hPa 0,0 l/m 0,0 km/h (0 Bft) N 0,00 h 0,000 mm 0,0 UV-I 0 W/m 10,4 C 11,1 C 0,2 km/h (0 Bft)
30.09.2014 07:00 11,3 C 96 % 1024,7 hPa 0,0 l/m 0,0 km/h (0 Bft) N 0,00 h 0,000 mm 0,0 UV-I 12 W/m 10,7 C 11,3 C 0,2 km/h (0 Bft)
30.09.2014 08:00 11,8 C 97 % 1024,7 hPa 0,0 l/m 0,1 km/h (0 Bft) O-NO 0,00 h 0,000 mm 0,0 UV-I 34 W/m 11,3 C 11,8 C 0,6 km/h (0 Bft)
30.09.2014 09:00 12,8 C 97 % 1024,9 hPa 0,0 l/m 0,0 km/h (0 Bft) N 0,92 h 0,025 mm 0,0 UV-I 59 W/m 12,4 C 12,8 C 0,3 km/h (0 Bft)
30.09.2014 10:00 14,1 C 95 % 1025,1 hPa 0,0 l/m 0,1 km/h (0 Bft) W 0,90 h 0,025 mm 0,7 UV-I 76 W/m 13,4 C 14,1 C 0,5 km/h (0 Bft)
30.09.2014 11:00 15,6 C 90 % 1024,9 hPa 0,0 l/m 1,0 km/h (0 Bft) S 1,00 h 0,025 mm 1,1 UV-I 144 W/m 14,0 C 15,6 C 2,6 km/h (1 Bft)
30.09.2014 12:00 16,9 C 86 % 1025,0 hPa 0,0 l/m 1,1 km/h (1 Bft) S 1,00 h 0,076 mm 1,6 UV-I 198 W/m 14,5 C 16,9 C 2,9 km/h (1 Bft)
30.09.2014 13:00 18,1 C 79 % 1024,8 hPa 0,0 l/m 4,2 km/h (1 Bft) W-SW 1,00 h 0,102 mm 2,0 UV-I 247 W/m 14,5 C 18,1 C 7,5 km/h (2 Bft)
30.09.2014 14:00 19,1 C 75 % 1024,6 hPa 0,0 l/m 6,8 km/h (2 Bft) W-SW 1,00 h 0,152 mm 2,0 UV-I 278 W/m 14,5 C 18,6 C 10,7 km/h (2 Bft)
30.09.2014 15:00 18,5 C 76 % 1024,6 hPa 0,0 l/m 6,5 km/h (2 Bft) W-SW 0,67 h 0,178 mm 0,6 UV-I 61 W/m 14,1 C 18,1 C 10,0 km/h (2 Bft)
30.09.2014 16:00 18,0 C 78 % 1024,5 hPa 0,0 l/m 5,1 km/h (1 Bft) W-SW 0,28 h 0,051 mm 0,5 UV-I 38 W/m 14,1 C 17,9 C 8,4 km/h (2 Bft)
30.09.2014 17:00 17,7 C 80 % 1024,4 hPa 0,0 l/m 1,7 km/h (1 Bft) W-NW 0,00 h 0,051 mm 0,0 UV-I 22 W/m 14,2 C 17,7 C 3,6 km/h (1 Bft)
30.09.2014 18:00 17,2 C 82 % 1024,6 hPa 0,0 l/m 0,2 km/h (0 Bft) W-NW 0,00 h 0,025 mm 0,0 UV-I 17 W/m 14,1 C 17,2 C 0,8 km/h (0 Bft)
30.09.2014 19:00 16,6 C 84 % 1025,0 hPa 0,0 l/m 0,0 km/h (0 Bft) N 0,00 h 0,000 mm 0,0 UV-I 0 W/m 13,9 C 16,6 C 0,3 km/h (0 Bft)
30.09.2014 20:00 16,0 C 89 % 1025,2 hPa 0,0 l/m 0,0 km/h (0 Bft) W-NW 0,00 h 0,025 mm 0,0 UV-I 0 W/m 14,1 C 16,0 C 0,3 km/h (0 Bft)
30.09.2014 21:00 15,3 C 92 % 1025,2 hPa 0,0 l/m 0,2 km/h (0 Bft) W-NW 0,00 h 0,000 mm 0,0 UV-I 0 W/m 14,0 C 15,3 C 1,0 km/h (0 Bft)
30.09.2014 22:00 14,9 C 93 % 1025,3 hPa 0,0 l/m 0,0 km/h (0 Bft) N 0,00 h 0,000 mm 0,0 UV-I 0 W/m 13,8 C 14,9 C 0,1 km/h (0 Bft)
30.09.2014 23:00 14,6 C 94 % 1025,3 hPa 0,0 l/m 0,0 km/h (0 Bft) N 0,00 h 0,000 mm 0,0 UV-I 0 W/m 13,7 C 14,6 C 0,1 km/h (0 Bft)
01.10.2014 00:00 14,4 C 95 % 1025,1 hPa 0,0 l/m 0,1 km/h (0 Bft) W-NW 0,00 h 0,000 mm 0,0 UV-I 0 W/m 13,6 C 14,4 C 0,8 km/h (0 Bft)
01.10.2014 01:00 13,9 C 95 % 1025,1 hPa 0,0 l/m 0,1 km/h (0 Bft) W-NW 0,00 h 0,000 mm 0,0 UV-I 0 W/m 13,1 C 13,9 C 0,3 km/h (0 Bft)
01.10.2014 02:00 13,5 C 95 % 1025,2 hPa 0,0 l/m 0,0 km/h (0 Bft) N 0,00 h 0,000 mm 0,0 UV-I 0 W/m 12,7 C 13,5 C 0,0 km/h (0 Bft)
01.10.2014 03:00 13,2 C 96 % 1025,3 hPa 0,0 l/m 0,0 km/h (0 Bft) N 0,00 h 0,000 mm 0,0 UV-I 0 W/m 12,5 C 13,2 C 0,1 km/h (0 Bft)
01.10.2014 04:00 13,1 C 96 % 1025,2 hPa 0,0 l/m 0,0 km/h (0 Bft) N 0,00 h 0,000 mm 0,0 UV-I 0 W/m 12,5 C 13,1 C 0,1 km/h (0 Bft)
01.10.2014 05:00 13,0 C 96 % 1025,0 hPa 0,0 l/m 0,0 km/h (0 Bft) N 0,00 h 0,000 mm 0,0 UV-I 0 W/m 12,3 C 13,0 C 0,1 km/h (0 Bft)
01.10.2014 06:00 12,8 C 97 % 1024,9 hPa 0,0 l/m 0,3 km/h (0 Bft) W-NW 0,00 h 0,000 mm 0,0 UV-I 0 W/m 12,3 C 12,8 C 0,9 km/h (0 Bft)
01.10.2014 07:00 12,8 C 97 % 1025,0 hPa 0,0 l/m 0,5 km/h (0 Bft) W-NW 0,00 h 0,000 mm 0,0 UV-I 17 W/m 12,4 C 12,8 C 1,0 km/h (0 Bft)
01.10.2014 08:00 13,4 C 97 % 1025,1 hPa 0,0 l/m 0,9 km/h (0 Bft) N 0,65 h 0,000 mm 0,5 UV-I 61 W/m 13,0 C 13,4 C 2,0 km/h (1 Bft)
01.10.2014 09:00 14,8 C 96 % 1025,5 hPa 0,0 l/m 1,4 km/h (1 Bft) N 1,00 h 0,025 mm 0,7 UV-I 127 W/m 14,1 C 14,8 C 3,2 km/h (1 Bft)
01.10.2014 10:00 15,6 C 92 % 1025,8 hPa 0,0 l/m 4,2 km/h (1 Bft) N 1,00 h 0,076 mm 1,0 UV-I 143 W/m 14,4 C 15,6 C 7,0 km/h (2 Bft)
01.10.2014 11:00 16,9 C 88 % 1025,8 hPa 0,0 l/m 3,8 km/h (1 Bft) N 1,00 h 0,076 mm 2,1 UV-I 365 W/m 14,8 C 16,8 C 6,6 km/h (2 Bft)
01.10.2014 12:00 18,0 C 81 % 1025,6 hPa 0,0 l/m 1,7 km/h (1 Bft) SO 1,00 h 0,203 mm 1,6 UV-I 322 W/m 14,7 C 18,0 C 3,7 km/h (1 Bft)
01.10.2014 13:00 17,1 C 87 % 1025,5 hPa 0,0 l/m 4,0 km/h (1 Bft) NW 1,00 h 0,178 mm 1,2 UV-I 154 W/m 14,9 C 17,1 C 6,7 km/h (2 Bft)
01.10.2014 14:00 16,4 C 88 % 1025,4 hPa 0,0 l/m 1,9 km/h (1 Bft) O 1,00 h 0,102 mm 0,6 UV-I 86 W/m 14,4 C 16,4 C 4,3 km/h (1 Bft)
01.10.2014 15:00 16,6 C 85 % 1025,0 hPa 0,0 l/m 2,0 km/h (1 Bft) O 1,00 h 0,051 mm 1,5 UV-I 324 W/m 14,0 C 16,6 C 4,1 km/h (1 Bft)
01.10.2014 16:00 17,0 C 82 % 1025,0 hPa 0,0 l/m 1,0 km/h (0 Bft) S-SO 1,00 h 0,178 mm 0,8 UV-I 135 W/m 13,9 C 17,0 C 2,7 km/h (1 Bft)
01.10.2014 17:00 16,4 C 89 % 1025,3 hPa 0,0 l/m 2,5 km/h (1 Bft) N-NO 0,48 h 0,076 mm 0,0 UV-I 62 W/m 14,5 C 16,4 C 4,8 km/h (1 Bft)
01.10.2014 18:00 15,2 C 90 % 1025,6 hPa 0,0 l/m 0,1 km/h (0 Bft) NO 0,00 h 0,051 mm 0,0 UV-I 19 W/m 13,7 C 15,2 C 0,7 km/h (0 Bft)
01.10.2014 19:00 14,9 C 92 % 1026,1 hPa 0,0 l/m 0,1 km/h (0 Bft) N 0,00 h 0,000 mm 0,0 UV-I 0 W/m 13,6 C 14,9 C 0,4 km/h (0 Bft)
01.10.2014 20:00 14,4 C 93 % 1026,5 hPa 0,0 l/m 0,5 km/h (0 Bft) O 0,00 h 0,000 mm 0,0 UV-I 0 W/m 13,2 C 14,4 C 1,6 km/h (1 Bft)
01.10.2014 21:00 13,6 C 93 % 1026,8 hPa 0,0 l/m 0,0 km/h (0 Bft) N 0,00 h 0,000 mm 0,0 UV-I 0 W/m 12,6 C 13,6 C 0,3 km/h (0 Bft)
01.10.2014 22:00 13,1 C 94 % 1027,0 hPa 0,0 l/m 0,0 km/h (0 Bft) N 0,00 h 0,000 mm 0,0 UV-I 0 W/m 12,2 C 13,1 C 0,2 km/h (0 Bft)
01.10.2014 23:00 12,6 C 95 % 1027,1 hPa 0,0 l/m 0,0 km/h (0 Bft) N 0,00 h 0,000 mm 0,0 UV-I 0 W/m 11,8 C 12,6 C 0,1 km/h (0 Bft)
02.10.2014 00:00 11,8 C 95 % 1027,4 hPa 0,0 l/m 0,0 km/h (0 Bft) N 0,00 h 0,000 mm 0,0 UV-I 0 W/m 10,9 C 11,8 C 0,3 km/h (0 Bft)
02.10.2014 01:00 10,7 C 94 % 1027,6 hPa 0,0 l/m 0,0 km/h (0 Bft) N 0,00 h 0,000 mm 0,0 UV-I 0 W/m 9,7 C 10,7 C 0,0 km/h (0 Bft)
02.10.2014 02:00 9,8 C 94 % 1027,8 hPa 0,0 l/m 0,0 km/h (0 Bft) N 0,00 h 0,000 mm 0,0 UV-I 0 W/m 8,9 C 9,8 C 0,0 km/h (0 Bft)
02.10.2014 03:00 9,2 C 95 % 1027,9 hPa 0,0 l/m 0,0 km/h (0 Bft) N 0,00 h 0,000 mm 0,0 UV-I 0 W/m 8,4 C 9,2 C 0,0 km/h (0 Bft)
02.10.2014 04:00 8,6 C 95 % 1028,0 hPa 0,0 l/m 0,0 km/h (0 Bft) N 0,00 h 0,000 mm 0,0 UV-I 0 W/m 7,8 C 8,6 C 0,0 km/h (0 Bft)
02.10.2014 05:00 8,3 C 96 % 1028,1 hPa 0,0 l/m 0,0 km/h (0 Bft) N 0,00 h 0,000 mm 0,0 UV-I 0 W/m 7,7 C 8,3 C 0,0 km/h (0 Bft)
02.10.2014 06:00 8,1 C 96 % 1028,4 hPa 0,0 l/m 0,1 km/h (0 Bft) N 0,00 h 0,000 mm 0,0 UV-I 0 W/m 7,6 C 8,1 C 0,4 km/h (0 Bft)
02.10.2014 07:00 8,4 C 97 % 1028,7 hPa 0,0 l/m 0,1 km/h (0 Bft) O-SO 0,00 h 0,000 mm 0,0 UV-I 11 W/m 8,0 C 8,4 C 0,4 km/h (0 Bft)
02.10.2014 08:00 8,8 C 97 % 1029,0 hPa 0,0 l/m 0,1 km/h (0 Bft) O-SO 0,58 h 0,000 mm 0,0 UV-I 53 W/m 8,4 C 8,8 C 0,5 km/h (0 Bft)
02.10.2014 09:00 9,8 C 98 % 1029,2 hPa 0,0 l/m 0,6 km/h (0 Bft) N 1,00 h 0,025 mm 0,7 UV-I 128 W/m 9,5 C 9,8 C 1,5 km/h (1 Bft)
02.10.2014 10:00 11,3 C 98 % 1029,4 hPa 0,0 l/m 0,3 km/h (0 Bft) N 1,00 h 0,051 mm 1,0 UV-I 168 W/m 11,0 C 11,3 C 1,1 km/h (1 Bft)
02.10.2014 11:00 13,7 C 95 % 1029,3 hPa 0,0 l/m 1,2 km/h (1 Bft) N 1,00 h 0,076 mm 2,3 UV-I 372 W/m 12,9 C 13,7 C 2,8 km/h (1 Bft)
02.10.2014 12:00 17,4 C 85 % 1028,9 hPa 0,0 l/m 2,2 km/h (1 Bft) W-NW 1,00 h 0,204 mm 3,2 UV-I 566 W/m 14,7 C 17,4 C 4,7 km/h (1 Bft)
02.10.2014 13:00 18,6 C 72 % 1028,5 hPa 0,2 l/m 2,7 km/h (1 Bft) O-NO 1,00 h 0,305 mm 2,8 UV-I 414 W/m 13,5 C 18,5 C 5,6 km/h (1 Bft)
02.10.2014 14:00 19,2 C 66 % 1028,1 hPa 0,0 l/m 4,8 km/h (1 Bft) SO 1,00 h 0,254 mm 2,8 UV-I 531 W/m 12,6 C 19,1 C 7,8 km/h (2 Bft)
02.10.2014 15:00 19,8 C 63 % 1027,8 hPa 0,0 l/m 2,7 km/h (1 Bft) S-SO 1,00 h 0,330 mm 1,8 UV-I 429 W/m 12,6 C 19,7 C 5,1 km/h (1 Bft)
02.10.2014 16:00 17,7 C 74 % 1027,7 hPa 0,0 l/m 4,9 km/h (1 Bft) O-NO 0,98 h 0,254 mm 0,5 UV-I 66 W/m 12,9 C 17,5 C 9,6 km/h (2 Bft)
02.10.2014 17:00 16,5 C 81 % 1027,6 hPa 0,0 l/m 1,3 km/h (1 Bft) O-NO 0,73 h 0,051 mm 0,5 UV-I 62 W/m 13,3 C 16,5 C 3,4 km/h (1 Bft)
02.10.2014 18:00 15,7 C 84 % 1027,8 hPa 0,0 l/m 0,5 km/h (0 Bft) O 0,00 h 0,051 mm 0,0 UV-I 21 W/m 13,0 C 15,7 C 1,9 km/h (1 Bft)
02.10.2014 19:00 14,9 C 86 % 1028,0 hPa 0,0 l/m 0,5 km/h (0 Bft) O-NO 0,00 h 0,000 mm 0,0 UV-I 0 W/m 12,5 C 14,9 C 1,9 km/h (1 Bft)
02.10.2014 20:00 13,5 C 89 % 1028,2 hPa 0,0 l/m 0,8 km/h (0 Bft) O-NO 0,00 h 0,000 mm 0,0 UV-I 0 W/m 11,7 C 13,5 C 2,0 km/h (1 Bft)
02.10.2014 21:00 12,5 C 92 % 1028,3 hPa 0,0 l/m 1,2 km/h (1 Bft) O-NO 0,00 h 0,000 mm 0,0 UV-I 0 W/m 11,2 C 12,5 C 2,8 km/h (1 Bft)
02.10.2014 22:00 11,5 C 91 % 1028,4 hPa 0,0 l/m 0,1 km/h (0 Bft) O-NO 0,00 h 0,000 mm 0,0 UV-I 0 W/m 10,1 C 11,5 C 0,7 km/h (0 Bft)
02.10.2014 23:00 10,4 C 92 % 1028,5 hPa 0,0 l/m 0,0 km/h (0 Bft) N 0,00 h 0,000 mm 0,0 UV-I 0 W/m 9,2 C 10,4 C 0,2 km/h (0 Bft)
03.10.2014 00:00 9,4 C 92 % 1028,3 hPa 0,0 l/m 0,0 km/h (0 Bft) N 0,00 h 0,000 mm 0,0 UV-I 0 W/m 8,2 C 9,4 C 0,3 km/h (0 Bft)
03.10.2014 01:00 8,4 C 93 % 1028,2 hPa 0,0 l/m 0,0 km/h (0 Bft) N 0,00 h 0,000 mm 0,0 UV-I 0 W/m 7,3 C 8,4 C 0,0 km/h (0 Bft)
03.10.2014 02:00 7,7 C 93 % 1027,9 hPa 0,0 l/m 0,0 km/h (0 Bft) N 0,00 h 0,000 mm 0,0 UV-I 0 W/m 6,6 C 7,7 C 0,0 km/h (0 Bft)
03.10.2014 03:00 6,9 C 94 % 1027,6 hPa 0,0 l/m 0,0 km/h (0 Bft) N 0,00 h 0,000 mm 0,0 UV-I 0 W/m 6,0 C 6,9 C 0,0 km/h (0 Bft)
03.10.2014 04:00 6,6 C 95 % 1027,4 hPa 0,0 l/m 0,0 km/h (0 Bft) N 0,00 h 0,000 mm 0,0 UV-I 0 W/m 5,9 C 6,6 C 0,0 km/h (0 Bft)
03.10.2014 05:00 6,1 C 95 % 1027,3 hPa 0,0 l/m 0,0 km/h (0 Bft) N 0,00 h 0,000 mm 0,0 UV-I 0 W/m 5,4 C 6,1 C 0,0 km/h (0 Bft)
03.10.2014 06:00 5,9 C 96 % 1027,3 hPa 0,0 l/m 0,0 km/h (0 Bft) N 0,00 h 0,000 mm 0,0 UV-I 0 W/m 5,2 C 5,9 C 0,0 km/h (0 Bft)
03.10.2014 07:00 5,7 C 96 % 1027,5 hPa 0,0 l/m 0,0 km/h (0 Bft) N 0,00 h 0,000 mm 0,0 UV-I 18 W/m 5,1 C 5,7 C 0,0 km/h (0 Bft)
03.10.2014 08:00 6,0 C 96 % 1027,7 hPa 0,0 l/m 0,0 km/h (0 Bft) N 0,77 h 0,000 mm 0,5 UV-I 99 W/m 5,5 C 6,0 C 0,0 km/h (0 Bft)
03.10.2014 09:00 9,6 C 95 % 1027,6 hPa 0,0 l/m 2,0 km/h (1 Bft) N 1,00 h 0,051 mm 0,9 UV-I 281 W/m 8,8 C 9,6 C 3,3 km/h (1 Bft)
03.10.2014 10:00 12,2 C 91 % 1027,4 hPa 0,0 l/m 2,6 km/h (1 Bft) W 1,00 h 0,127 mm 1,6 UV-I 358 W/m 10,8 C 12,2 C 4,8 km/h (1 Bft)
03.10.2014 11:00 14,0 C 88 % 1027,1 hPa 0,0 l/m 3,1 km/h (1 Bft) W 1,00 h 0,178 mm 2,5 UV-I 449 W/m 12,0 C 14,0 C 5,5 km/h (1 Bft)
03.10.2014 12:00 16,4 C 79 % 1026,7 hPa 0,0 l/m 2,7 km/h (1 Bft) O-NO 1,00 h 0,229 mm 2,9 UV-I 537 W/m 12,7 C 16,4 C 6,0 km/h (2 Bft)
03.10.2014 13:00 17,1 C 73 % 1026,3 hPa 0,0 l/m 4,6 km/h (1 Bft) O-NO 1,00 h 0,279 mm 3,1 UV-I 577 W/m 12,2 C 16,9 C 9,1 km/h (2 Bft)
03.10.2014 14:00 17,5 C 67 % 1025,8 hPa 0,0 l/m 4,5 km/h (1 Bft) SO 1,00 h 0,330 mm 2,6 UV-I 522 W/m 11,3 C 17,4 C 9,1 km/h (2 Bft)
03.10.2014 15:00 17,8 C 64 % 1025,3 hPa 0,0 l/m 2,9 km/h (1 Bft) O-NO 1,00 h 0,305 mm 1,6 UV-I 304 W/m 10,9 C 17,8 C 6,2 km/h (2 Bft)
03.10.2014 16:00 16,4 C 73 % 1025,0 hPa 0,0 l/m 3,4 km/h (1 Bft) O-SO 0,88 h 0,178 mm 0,6 UV-I 111 W/m 11,6 C 16,3 C 7,1 km/h (2 Bft)
03.10.2014 17:00 15,5 C 77 % 1024,9 hPa 0,0 l/m 3,5 km/h (1 Bft) SO 0,85 h 0,076 mm 0,6 UV-I 97 W/m 11,5 C 15,5 C 7,2 km/h (2 Bft)
03.10.2014 18:00 13,9 C 83 % 1024,8 hPa 0,0 l/m 1,4 km/h (1 Bft) SO 0,00 h 0,051 mm 0,0 UV-I 12 W/m 11,0 C 13,9 C 3,1 km/h (1 Bft)
03.10.2014 19:00 12,8 C 86 % 1024,9 hPa 0,0 l/m 0,1 km/h (0 Bft) O-NO 0,00 h 0,000 mm 0,0 UV-I 0 W/m 10,5 C 12,8 C 0,5 km/h (0 Bft)
03.10.2014 20:00 11,5 C 89 % 1024,9 hPa 0,0 l/m 0,0 km/h (0 Bft) O-SO 0,00 h 0,000 mm 0,0 UV-I 0 W/m 9,7 C 11,5 C 0,1 km/h (0 Bft)
03.10.2014 21:00 10,5 C 92 % 1024,8 hPa 0,0 l/m 2,9 km/h (1 Bft) O-NO 0,00 h 0,000 mm 0,0 UV-I 0 W/m 9,2 C 10,4 C 6,0 km/h (2 Bft)
03.10.2014 22:00 10,6 C 93 % 1024,8 hPa 0,0 l/m 2,7 km/h (1 Bft) O 0,00 h 0,000 mm 0,0 UV-I 0 W/m 9,4 C 10,5 C 5,2 km/h (1 Bft)
03.10.2014 23:00 10,3 C 93 % 1024,4 hPa 0,0 l/m 2,6 km/h (1 Bft) O-NO 0,00 h 0,000 mm 0,0 UV-I 0 W/m 9,1 C 10,3 C 4,9 km/h (1 Bft)
04.10.2014 00:00 9,9 C 92 % 1024,2 hPa 0,0 l/m 1,7 km/h (1 Bft) O-NO 0,00 h 0,000 mm 0,0 UV-I 0 W/m 8,8 C 9,9 C 3,6 km/h (1 Bft)
04.10.2014 01:00 9,0 C 92 % 1024,0 hPa 0,0 l/m 0,6 km/h (0 Bft) O-NO 0,00 h 0,000 mm 0,0 UV-I 0 W/m 7,7 C 9,0 C 2,2 km/h (1 Bft)
04.10.2014 02:00 7,9 C 93 % 1023,7 hPa 0,0 l/m 0,9 km/h (0 Bft) NO 0,00 h 0,000 mm 0,0 UV-I 0 W/m 6,8 C 7,9 C 2,3 km/h (1 Bft)
04.10.2014 03:00 8,4 C 96 % 1023,1 hPa 0,0 l/m 1,8 km/h (1 Bft) NO 0,00 h 0,000 mm 0,0 UV-I 0 W/m 7,7 C 8,4 C 3,1 km/h (1 Bft)
04.10.2014 04:00 7,9 C 95 % 1022,6 hPa 0,0 l/m 0,9 km/h (0 Bft) NO 0,00 h 0,000 mm 0,0 UV-I 0 W/m 7,1 C 7,9 C 2,2 km/h (1 Bft)
04.10.2014 05:00 7,8 C 96 % 1022,2 hPa 0,0 l/m 1,2 km/h (1 Bft) O-NO 0,00 h 0,000 mm 0,0 UV-I 0 W/m 7,1 C 7,8 C 3,2 km/h (1 Bft)
04.10.2014 06:00 7,5 C 96 % 1021,9 hPa 0,0 l/m 0,9 km/h (0 Bft) N 0,00 h 0,000 mm 0,0 UV-I 0 W/m 6,9 C 7,5 C 2,0 km/h (1 Bft)
04.10.2014 07:00 8,2 C 97 % 1021,6 hPa 0,0 l/m 0,3 km/h (0 Bft) NO 0,00 h 0,000 mm 0,0 UV-I 11 W/m 7,7 C 8,2 C 1,3 km/h (1 Bft)
04.10.2014 08:00 9,3 C 97 % 1021,5 hPa 0,0 l/m 1,4 km/h (1 Bft) O-NO 0,70 h 0,000 mm 0,0 UV-I 53 W/m 8,9 C 9,3 C 3,6 km/h (1 Bft)
04.10.2014 09:00 10,3 C 93 % 1021,6 hPa 0,0 l/m 2,8 km/h (1 Bft) O 0,95 h 0,025 mm 0,5 UV-I 61 W/m 9,3 C 10,3 C 6,8 km/h (2 Bft)
04.10.2014 10:00 10,0 C 92 % 1021,6 hPa 0,0 l/m 5,9 km/h (2 Bft) O-SO 0,77 h 0,025 mm 0,6 UV-I 65 W/m 8,7 C 9,5 C 11,4 km/h (2 Bft)
04.10.2014 11:00 10,1 C 91 % 1021,4 hPa 0,0 l/m 4,6 km/h (1 Bft) SO 1,00 h 0,025 mm 0,8 UV-I 95 W/m 8,7 C 9,8 C 8,8 km/h (2 Bft)
04.10.2014 12:00 11,5 C 84 % 1021,0 hPa 0,0 l/m 5,2 km/h (1 Bft) SO 1,00 h 0,051 mm 2,0 UV-I 340 W/m 8,7 C 11,2 C 9,7 km/h (2 Bft)
04.10.2014 13:00 13,9 C 72 % 1020,2 hPa 0,0 l/m 5,6 km/h (1 Bft) SO 1,00 h 0,178 mm 3,1 UV-I 591 W/m 9,0 C 13,5 C 10,0 km/h (2 Bft)
04.10.2014 14:00 15,2 C 67 % 1019,4 hPa 0,0 l/m 6,5 km/h (2 Bft) SO 1,00 h 0,305 mm 2,6 UV-I 528 W/m 9,2 C 14,5 C 11,8 km/h (2 Bft)
04.10.2014 15:00 15,3 C 68 % 1018,9 hPa 0,0 l/m 9,3 km/h (2 Bft) SO 1,00 h 0,305 mm 1,8 UV-I 427 W/m 9,3 C 13,7 C 15,3 km/h (3 Bft)
04.10.2014 16:00 14,3 C 71 % 1018,7 hPa 0,0 l/m 6,2 km/h (2 Bft) O 1,00 h 0,254 mm 1,0 UV-I 282 W/m 9,1 C 13,7 C 12,4 km/h (3 Bft)
04.10.2014 17:00 13,0 C 75 % 1018,7 hPa 0,0 l/m 6,3 km/h (2 Bft) O-NO 0,92 h 0,178 mm 0,6 UV-I 110 W/m 8,7 C 12,3 C 12,8 km/h (3 Bft)
04.10.2014 18:00 11,6 C 80 % 1018,8 hPa 0,0 l/m 6,1 km/h (2 Bft) O 0,00 h 0,076 mm 0,0 UV-I 14 W/m 8,2 C 11,0 C 12,3 km/h (3 Bft)
04.10.2014 19:00 10,9 C 82 % 1018,7 hPa 0,0 l/m 4,1 km/h (1 Bft) O 0,00 h 0,025 mm 0,0 UV-I 0 W/m 8,0 C 10,5 C 8,7 km/h (2 Bft)
04.10.2014 20:00 9,7 C 86 % 1018,8 hPa 0,0 l/m 1,1 km/h (1 Bft) O 0,00 h 0,025 mm 0,0 UV-I 0 W/m 7,4 C 9,7 C 3,4 km/h (1 Bft)
04.10.2014 21:00 8,8 C 89 % 1018,8 hPa 0,0 l/m 0,8 km/h (0 Bft) NO 0,00 h 0,000 mm 0,0 UV-I 0 W/m 7,1 C 8,8 C 2,4 km/h (1 Bft)
04.10.2014 22:00 8,1 C 91 % 1018,7 hPa 0,0 l/m 0,8 km/h (0 Bft) O-NO 0,00 h 0,000 mm 0,0 UV-I 0 W/m 6,7 C 8,1 C 2,4 km/h (1 Bft)
04.10.2014 23:00 7,7 C 93 % 1018,7 hPa 0,0 l/m 1,1 km/h (1 Bft) O-NO 0,00 h 0,000 mm 0,0 UV-I 0 W/m 6,7 C 7,7 C 2,7 km/h (1 Bft)
05.10.2014 00:00 7,8 C 94 % 1018,6 hPa 0,0 l/m 0,2 km/h (0 Bft) N 0,00 h 0,000 mm 0,0 UV-I 0 W/m 6,9 C 7,8 C 0,7 km/h (0 Bft)
05.10.2014 01:00 8,1 C 95 % 1018,2 hPa 0,0 l/m 0,3 km/h (0 Bft) O-NO 0,00 h 0,000 mm 0,0 UV-I 0 W/m 7,4 C 8,1 C 1,6 km/h (1 Bft)
05.10.2014 02:00 8,3 C 95 % 1018,3 hPa 0,0 l/m 0,7 km/h (0 Bft) O-SO 0,00 h 0,000 mm 0,0 UV-I 0 W/m 7,6 C 8,3 C 2,0 km/h (1 Bft)
05.10.2014 03:00 9,1 C 95 % 1018,2 hPa 0,0 l/m 1,6 km/h (1 Bft) SO 0,00 h 0,000 mm 0,0 UV-I 0 W/m 8,4 C 9,1 C 3,3 km/h (1 Bft)
05.10.2014 04:00 9,1 C 94 % 1017,9 hPa 0,0 l/m 0,1 km/h (0 Bft) O-NO 0,00 h 0,000 mm 0,0 UV-I 0 W/m 8,2 C 9,1 C 0,8 km/h (0 Bft)
05.10.2014 05:00 9,0 C 94 % 1017,7 hPa 0,0 l/m 0,0 km/h (0 Bft) N 0,00 h 0,000 mm 0,0 UV-I 0 W/m 8,1 C 9,0 C 0,3 km/h (0 Bft)
05.10.2014 06:00 9,0 C 94 % 1017,6 hPa 0,0 l/m 0,2 km/h (0 Bft) O-NO 0,00 h 0,000 mm 0,0 UV-I 0 W/m 8,0 C 9,0 C 1,2 km/h (1 Bft)
05.10.2014 07:00 8,8 C 94 % 1017,6 hPa 0,0 l/m 0,1 km/h (0 Bft) O 0,00 h 0,000 mm 0,0 UV-I 13 W/m 8,0 C 8,8 C 0,8 km/h (0 Bft)
05.10.2014 08:00 9,3 C 95 % 1017,9 hPa 0,0 l/m 0,1 km/h (0 Bft) SO 0,55 h 0,000 mm 0,5 UV-I 53 W/m 8,6 C 9,3 C 0,6 km/h (0 Bft)
05.10.2014 09:00 11,0 C 92 % 1018,0 hPa 0,0 l/m 1,8 km/h (1 Bft) O-SO 1,00 h 0,025 mm 0,7 UV-I 136 W/m 9,7 C 11,0 C 3,9 km/h (1 Bft)
05.10.2014 10:00 12,0 C 83 % 1018,2 hPa 0,0 l/m 4,5 km/h (1 Bft) SO 1,00 h 0,076 mm 1,0 UV-I 165 W/m 9,2 C 11,8 C 8,8 km/h (2 Bft)
05.10.2014 11:00 12,9 C 73 % 1018,2 hPa 0,0 l/m 8,5 km/h (2 Bft) SO 1,00 h 0,102 mm 2,0 UV-I 318 W/m 8,1 C 11,6 C 14,4 km/h (3 Bft)
05.10.2014 12:00 13,5 C 71 % 1017,9 hPa 0,0 l/m 7,1 km/h (2 Bft) SO 1,00 h 0,178 mm 1,7 UV-I 281 W/m 8,4 C 12,6 C 11,6 km/h (2 Bft)
05.10.2014 13:00 13,6 C 69 % 1017,6 hPa 0,0 l/m 6,6 km/h (2 Bft) SO 1,00 h 0,152 mm 1,5 UV-I 194 W/m 8,1 C 13,0 C 10,9 km/h (2 Bft)
05.10.2014 14:00 13,9 C 70 % 1017,4 hPa 0,0 l/m 5,0 km/h (1 Bft) SO 1,00 h 0,127 mm 1,2 UV-I 177 W/m 8,4 C 13,7 C 8,8 km/h (2 Bft)
05.10.2014 15:00 14,0 C 70 % 1017,2 hPa 0,0 l/m 3,4 km/h (1 Bft) SO 1,00 h 0,102 mm 0,9 UV-I 145 W/m 8,7 C 13,8 C 6,4 km/h (2 Bft)
05.10.2014 16:00 13,6 C 73 % 1017,1 hPa 0,0 l/m 2,9 km/h (1 Bft) SO 0,92 h 0,076 mm 0,6 UV-I 89 W/m 8,8 C 13,6 C 6,0 km/h (2 Bft)
05.10.2014 17:00 13,2 C 75 % 1017,0 hPa 0,0 l/m 2,3 km/h (1 Bft) O-SO 0,60 h 0,051 mm 0,5 UV-I 56 W/m 8,9 C 13,2 C 5,3 km/h (1 Bft)
05.10.2014 18:00 12,3 C 79 % 1017,1 hPa 0,0 l/m 0,5 km/h (0 Bft) O-SO 0,00 h 0,025 mm 0,0 UV-I 9 W/m 8,7 C 12,3 C 2,1 km/h (1 Bft)
05.10.2014 19:00 10,9 C 84 % 1017,2 hPa 0,0 l/m 0,2 km/h (0 Bft) SO 0,00 h 0,000 mm 0,0 UV-I 0 W/m 8,2 C 10,9 C 1,3 km/h (1 Bft)
05.10.2014 20:00 9,5 C 88 % 1017,3 hPa 0,0 l/m 0,3 km/h (0 Bft) O 0,00 h 0,000 mm 0,0 UV-I 0 W/m 7,6 C 9,5 C 1,3 km/h (1 Bft)
05.10.2014 21:00 8,5 C 91 % 1017,4 hPa 0,0 l/m 0,7 km/h (0 Bft) SO 0,00 h 0,000 mm 0,0 UV-I 0 W/m 7,1 C 8,5 C 2,1 km/h (1 Bft)
05.10.2014 22:00 8,4 C 94 % 1017,2 hPa 0,0 l/m 0,5 km/h (0 Bft) O-SO 0,00 h 0,000 mm 0,0 UV-I 0 W/m 7,4 C 8,4 C 1,7 km/h (1 Bft)
05.10.2014 23:00 7,4 C 92 % 1017,0 hPa 0,0 l/m 0,2 km/h (0 Bft) N 0,00 h 0,000 mm 0,0 UV-I 0 W/m 6,2 C 7,4 C 0,9 km/h (0 Bft)
Min-Datum _ 29.09.14 29.09.14 05.10.14 - 29.09.14 - - - - - 29.09.14 29.09.14 29.09.14
_ Min-Zeit 07:36 16:39 17:08 - 00:00 - - - - - 06:38 07:36 00:00
Minimum _ 5,2 C 52 % 1016,9 hPa - 0,0 km/h (0 Bft) - - - - - 4,4 C 5,2 C 0,0 km/h (0 Bft)
Max-Datum _ 29.09.14 01.10.14 02.10.14 02.10.14 04.10.14 - 02.10.14 29.09.14 29.09.14 04.10.14 29.09.14 29.09.14 04.10.14
_ Max-Zeit 15:14 08:33 10:09 13:10 15:06 - 08:59 13:00 12:37 12:39 13:05 15:14 18:29
Maximum _ 22,9 C 98 % 1029,4 hPa 0,2 l/m 16,1 km/h
SO (3 Bft)
- 0,08 h 0,356 mm 3,6 UV-I 800 W/m 16,2 C 22,9 C 33,8 km/h
O (5 Bft)
Durchschnitt _ 12,5 C 87 % 1024,1 hPa #0,2 l/m 1,6 km/h (1 Bft) SO #62:47 h #9,953 mm 1,5 UV-I 206 W/m 10,3 C 12,4 C 3,2 km/h (1 Bft)